メインページ
METAR-TAF:

METAR-TAF

空港 :

San José del Cabo, メキシコ

緯度: 23-09N, 経度: 109-42W, 海抜: 109m

現時点の気象観測

当レポートは1時間18分前の01:40(UTC)に作成
西/北西の風 14kt
気温 20°C
湿度 78%
気圧 1017 hPa
視程: 19.3km
晴天

METAR: MMSD 100140Z 30014KT 12SM SKC 20/16 A3002 RMK AC

時間: 19:58 (02:58 UTC)

予報

当レポートは10時間11分前の16:47(UTC)に作成
予報は09日の 18時(UTC)から 10日の 18時(UTC)まで有効
の風 8kt
視程: 10km
高度3000ftの雲は散在している
09日の 20時(UTC)から 09日の 21時(UTC)まで徐々に
の風 15kt
10日の 0200時(UTC)から
西/北西の風 6kt
視程: 10km
高度25000ftの雲は散在している
10日の 14時(UTC)から 10日の 15時(UTC)まで徐々に
北西の風 8kt

TAF: MMSD 091647Z 0918/1018 36008KT P6SM SCT030 BECMG 0920/0921 36015KT FM100200 29006KT P6SM SCT250 BECMG 1014/1015 32008KT

4,000以上の空港の気象観測と天気予報(METAR報とTAF報)

利用可能な観測所は地図上に黄色い丸と赤い丸で示す。

丸の上にカーソルを重ねると観測所名を参照できる。

次にクリックすると気象観測と天気予報を参照できる。

マップの切り替え:黒色「×」印の緑ボタンをクリックして拡大、「-」印の緑ボタンをクリックして縮小、緑色の三角印をクリックして隣りの地図に切り替え


METAR-TAF: